sensor_id;sensor_type;location;lat;lon;timestamp;P1;durP1;ratioP1;P2;durP2;ratioP2
57057;SDS011;55017;52.848;6.748;2022-12-24T00:00:33;148.40;;;141.93;;
57057;SDS011;55017;52.848;6.748;2022-12-24T00:02:59;150.20;;;143.82;;
57057;SDS011;55017;52.848;6.748;2022-12-24T00:05:25;149.55;;;142.50;;
57057;SDS011;55017;52.848;6.748;2022-12-24T00:07:51;148.23;;;141.95;;
57057;SDS011;55017;52.848;6.748;2022-12-24T00:10:17;147.20;;;140.63;;
57057;SDS011;55017;52.848;6.748;2022-12-24T00:12:43;150.85;;;143.88;;
57057;SDS011;55017;52.848;6.748;2022-12-24T00:15:10;149.00;;;142.50;;
57057;SDS011;55017;52.848;6.748;2022-12-24T00:17:36;148.18;;;141.52;;
57057;SDS011;55017;52.848;6.748;2022-12-24T00:20:02;161.07;;;150.38;;
57057;SDS011;55017;52.848;6.748;2022-12-24T00:22:28;150.90;;;143.60;;
57057;SDS011;55017;52.848;6.748;2022-12-24T00:24:54;146.82;;;140.45;;
57057;SDS011;55017;52.848;6.748;2022-12-24T00:27:20;153.55;;;145.85;;
57057;SDS011;55017;52.848;6.748;2022-12-24T00:29:46;157.23;;;147.45;;
57057;SDS011;55017;52.848;6.748;2022-12-24T00:32:12;150.93;;;143.63;;
57057;SDS011;55017;52.848;6.748;2022-12-24T00:34:38;152.07;;;144.85;;
57057;SDS011;55017;52.848;6.748;2022-12-24T00:37:05;151.80;;;144.68;;
57057;SDS011;55017;52.848;6.748;2022-12-24T00:39:31;155.98;;;148.45;;
57057;SDS011;55017;52.848;6.748;2022-12-24T00:41:57;152.88;;;145.43;;
57057;SDS011;55017;52.848;6.748;2022-12-24T00:44:23;154.77;;;146.15;;
57057;SDS011;55017;52.848;6.748;2022-12-24T00:46:49;157.65;;;149.27;;
57057;SDS011;55017;52.848;6.748;2022-12-24T00:49:15;152.77;;;144.77;;
57057;SDS011;55017;52.848;6.748;2022-12-24T00:51:41;153.88;;;145.65;;
57057;SDS011;55017;52.848;6.748;2022-12-24T00:54:08;154.73;;;146.60;;
57057;SDS011;55017;52.848;6.748;2022-12-24T00:56:34;155.52;;;147.25;;
57057;SDS011;55017;52.848;6.748;2022-12-24T00:59:00;158.77;;;149.88;;
57057;SDS011;55017;52.848;6.748;2022-12-24T01:01:26;159.52;;;150.32;;
57057;SDS011;55017;52.848;6.748;2022-12-24T01:03:52;161.98;;;152.18;;
57057;SDS011;55017;52.848;6.748;2022-12-24T01:06:38;157.93;;;149.20;;
57057;SDS011;55017;52.848;6.748;2022-12-24T01:09:04;156.18;;;147.48;;
57057;SDS011;55017;52.848;6.748;2022-12-24T01:11:30;161.30;;;152.02;;
57057;SDS011;55017;52.848;6.748;2022-12-24T01:13:56;158.40;;;149.00;;
57057;SDS011;55017;52.848;6.748;2022-12-24T01:16:22;161.52;;;152.45;;
57057;SDS011;55017;52.848;6.748;2022-12-24T01:18:48;157.38;;;148.40;;
57057;SDS011;55017;52.848;6.748;2022-12-24T01:21:14;162.95;;;153.95;;
57057;SDS011;55017;52.848;6.748;2022-12-24T01:23:41;160.52;;;151.95;;
57057;SDS011;55017;52.848;6.748;2022-12-24T01:26:07;163.57;;;153.35;;
57057;SDS011;55017;52.848;6.748;2022-12-24T01:28:33;160.90;;;151.55;;
57057;SDS011;55017;52.848;6.748;2022-12-24T01:30:59;159.10;;;150.15;;
57057;SDS011;55017;52.848;6.748;2022-12-24T01:33:28;159.52;;;149.45;;
57057;SDS011;55017;52.848;6.748;2022-12-24T01:35:54;158.82;;;149.25;;
57057;SDS011;55017;52.848;6.748;2022-12-24T01:38:20;154.77;;;147.02;;
57057;SDS011;55017;52.848;6.748;2022-12-24T01:40:46;157.57;;;149.25;;
57057;SDS011;55017;52.848;6.748;2022-12-24T01:43:31;154.50;;;146.52;;
57057;SDS011;55017;52.848;6.748;2022-12-24T01:45:58;156.32;;;148.20;;
57057;SDS011;55017;52.848;6.748;2022-12-24T01:48:36;153.75;;;146.02;;
57057;SDS011;55017;52.848;6.748;2022-12-24T01:51:10;158.23;;;149.30;;
57057;SDS011;55017;52.848;6.748;2022-12-24T01:53:37;153.70;;;146.07;;
57057;SDS011;55017;52.848;6.748;2022-12-24T01:56:04;151.10;;;143.90;;
57057;SDS011;55017;52.848;6.748;2022-12-24T01:58:31;151.43;;;143.85;;
57057;SDS011;55017;52.848;6.748;2022-12-24T02:00:58;153.02;;;145.45;;
57057;SDS011;55017;52.848;6.748;2022-12-24T02:03:24;146.70;;;139.43;;
57057;SDS011;55017;52.848;6.748;2022-12-24T02:05:51;148.52;;;141.52;;
57057;SDS011;55017;52.848;6.748;2022-12-24T02:08:18;145.30;;;138.97;;
57057;SDS011;55017;52.848;6.748;2022-12-24T02:10:45;145.07;;;138.40;;
57057;SDS011;55017;52.848;6.748;2022-12-24T02:13:11;148.13;;;141.35;;
57057;SDS011;55017;52.848;6.748;2022-12-24T02:18:21;144.77;;;138.13;;
57057;SDS011;55017;52.848;6.748;2022-12-24T02:29:04;139.80;;;133.98;;
57057;SDS011;55017;52.848;6.748;2022-12-24T02:31:39;142.75;;;136.80;;
57057;SDS011;55017;52.848;6.748;2022-12-24T02:34:08;142.45;;;136.48;;
57057;SDS011;55017;52.848;6.748;2022-12-24T02:36:39;141.63;;;135.55;;
57057;SDS011;55017;52.848;6.748;2022-12-24T02:39:07;140.95;;;134.88;;
57057;SDS011;55017;52.848;6.748;2022-12-24T02:41:36;140.82;;;134.75;;
57057;SDS011;55017;52.848;6.748;2022-12-24T02:44:22;140.93;;;134.98;;
57057;SDS011;55017;52.848;6.748;2022-12-24T02:46:49;140.82;;;134.77;;
57057;SDS011;55017;52.848;6.748;2022-12-24T02:49:16;139.15;;;133.50;;
57057;SDS011;55017;52.848;6.748;2022-12-24T02:51:42;137.95;;;131.50;;
57057;SDS011;55017;52.848;6.748;2022-12-24T02:54:08;138.32;;;131.80;;
57057;SDS011;55017;52.848;6.748;2022-12-24T02:56:55;136.55;;;129.63;;
57057;SDS011;55017;52.848;6.748;2022-12-24T03:04:37;143.05;;;135.13;;
57057;SDS011;55017;52.848;6.748;2022-12-24T03:12:29;139.93;;;131.65;;
57057;SDS011;55017;52.848;6.748;2022-12-24T03:14:55;137.55;;;129.63;;
57057;SDS011;55017;52.848;6.748;2022-12-24T03:17:21;139.45;;;131.23;;
57057;SDS011;55017;52.848;6.748;2022-12-24T03:19:47;137.88;;;129.68;;
57057;SDS011;55017;52.848;6.748;2022-12-24T03:22:14;143.65;;;135.73;;
57057;SDS011;55017;52.848;6.748;2022-12-24T03:24:40;139.73;;;132.35;;
57057;SDS011;55017;52.848;6.748;2022-12-24T03:27:06;137.48;;;130.45;;
57057;SDS011;55017;52.848;6.748;2022-12-24T03:29:33;137.60;;;129.50;;
57057;SDS011;55017;52.848;6.748;2022-12-24T03:32:01;136.98;;;129.65;;
57057;SDS011;55017;52.848;6.748;2022-12-24T03:34:27;137.32;;;129.68;;
57057;SDS011;55017;52.848;6.748;2022-12-24T03:36:54;140.63;;;132.80;;
57057;SDS011;55017;52.848;6.748;2022-12-24T03:39:20;137.30;;;130.18;;
57057;SDS011;55017;52.848;6.748;2022-12-24T03:41:46;141.10;;;132.98;;
57057;SDS011;55017;52.848;6.748;2022-12-24T03:44:12;138.52;;;130.98;;
57057;SDS011;55017;52.848;6.748;2022-12-24T03:46:38;137.93;;;130.55;;
57057;SDS011;55017;52.848;6.748;2022-12-24T03:49:04;137.15;;;129.98;;
57057;SDS011;55017;52.848;6.748;2022-12-24T03:51:30;139.63;;;132.57;;
57057;SDS011;55017;52.848;6.748;2022-12-24T03:53:57;138.35;;;130.88;;
57057;SDS011;55017;52.848;6.748;2022-12-24T03:56:24;141.23;;;133.68;;
57057;SDS011;55017;52.848;6.748;2022-12-24T03:58:50;138.50;;;129.65;;
57057;SDS011;55017;52.848;6.748;2022-12-24T04:01:16;139.70;;;132.02;;
57057;SDS011;55017;52.848;6.748;2022-12-24T04:03:43;136.93;;;129.95;;
57057;SDS011;55017;52.848;6.748;2022-12-24T04:06:13;140.00;;;131.82;;
57057;SDS011;55017;52.848;6.748;2022-12-24T04:08:40;135.20;;;128.45;;
57057;SDS011;55017;52.848;6.748;2022-12-24T04:11:08;138.13;;;131.27;;
57057;SDS011;55017;52.848;6.748;2022-12-24T04:13:34;138.93;;;131.37;;
57057;SDS011;55017;52.848;6.748;2022-12-24T04:16:02;138.30;;;130.85;;
57057;SDS011;55017;52.848;6.748;2022-12-24T04:18:28;136.45;;;129.25;;
57057;SDS011;55017;52.848;6.748;2022-12-24T04:20:54;140.40;;;132.85;;
57057;SDS011;55017;52.848;6.748;2022-12-24T04:23:20;137.18;;;130.05;;
57057;SDS011;55017;52.848;6.748;2022-12-24T04:25:46;135.27;;;128.75;;
57057;SDS011;55017;52.848;6.748;2022-12-24T04:28:12;138.15;;;131.00;;
57057;SDS011;55017;52.848;6.748;2022-12-24T04:30:39;139.80;;;132.68;;
57057;SDS011;55017;52.848;6.748;2022-12-24T04:33:05;138.05;;;130.57;;
57057;SDS011;55017;52.848;6.748;2022-12-24T04:35:31;136.07;;;128.63;;
57057;SDS011;55017;52.848;6.748;2022-12-24T04:37:57;140.95;;;133.18;;
57057;SDS011;55017;52.848;6.748;2022-12-24T04:40:23;139.00;;;130.95;;
57057;SDS011;55017;52.848;6.748;2022-12-24T04:42:49;140.07;;;131.95;;
57057;SDS011;55017;52.848;6.748;2022-12-24T04:45:16;141.90;;;133.50;;
57057;SDS011;55017;52.848;6.748;2022-12-24T04:47:42;137.57;;;129.98;;
57057;SDS011;55017;52.848;6.748;2022-12-24T04:50:08;139.75;;;131.48;;
57057;SDS011;55017;52.848;6.748;2022-12-24T04:52:34;141.65;;;133.38;;
57057;SDS011;55017;52.848;6.748;2022-12-24T04:55:00;141.32;;;133.45;;
57057;SDS011;55017;52.848;6.748;2022-12-24T04:57:26;137.75;;;129.65;;
57057;SDS011;55017;52.848;6.748;2022-12-24T04:59:52;138.45;;;130.60;;
57057;SDS011;55017;52.848;6.748;2022-12-24T05:02:18;137.35;;;129.63;;
57057;SDS011;55017;52.848;6.748;2022-12-24T05:04:44;138.30;;;130.02;;
57057;SDS011;55017;52.848;6.748;2022-12-24T05:07:10;139.48;;;131.45;;
57057;SDS011;55017;52.848;6.748;2022-12-24T05:09:36;141.05;;;132.82;;
57057;SDS011;55017;52.848;6.748;2022-12-24T05:12:02;138.48;;;130.50;;
57057;SDS011;55017;52.848;6.748;2022-12-24T05:14:29;138.93;;;130.93;;
57057;SDS011;55017;52.848;6.748;2022-12-24T05:16:55;135.80;;;128.23;;
57057;SDS011;55017;52.848;6.748;2022-12-24T05:19:21;136.75;;;128.80;;
57057;SDS011;55017;52.848;6.748;2022-12-24T05:21:47;139.10;;;131.05;;
57057;SDS011;55017;52.848;6.748;2022-12-24T05:24:32;139.27;;;131.40;;
57057;SDS011;55017;52.848;6.748;2022-12-24T05:27:17;136.10;;;128.82;;
57057;SDS011;55017;52.848;6.748;2022-12-24T05:29:43;139.35;;;131.20;;
57057;SDS011;55017;52.848;6.748;2022-12-24T05:32:09;138.25;;;130.27;;
57057;SDS011;55017;52.848;6.748;2022-12-24T05:34:35;140.48;;;132.63;;
57057;SDS011;55017;52.848;6.748;2022-12-24T05:37:01;140.40;;;132.65;;
57057;SDS011;55017;52.848;6.748;2022-12-24T05:39:27;139.00;;;131.30;;
57057;SDS011;55017;52.848;6.748;2022-12-24T05:41:53;138.30;;;130.57;;
57057;SDS011;55017;52.848;6.748;2022-12-24T05:44:19;142.10;;;133.68;;
57057;SDS011;55017;52.848;6.748;2022-12-24T05:46:45;139.90;;;132.05;;
57057;SDS011;55017;52.848;6.748;2022-12-24T05:49:11;140.07;;;131.95;;
57057;SDS011;55017;52.848;6.748;2022-12-24T05:51:38;139.40;;;131.18;;
57057;SDS011;55017;52.848;6.748;2022-12-24T05:54:04;140.35;;;132.20;;
57057;SDS011;55017;52.848;6.748;2022-12-24T05:56:30;138.27;;;130.35;;
57057;SDS011;55017;52.848;6.748;2022-12-24T05:58:56;142.35;;;133.73;;
57057;SDS011;55017;52.848;6.748;2022-12-24T06:01:22;142.07;;;133.60;;
57057;SDS011;55017;52.848;6.748;2022-12-24T06:03:49;143.07;;;134.30;;
57057;SDS011;55017;52.848;6.748;2022-12-24T06:06:17;136.95;;;128.73;;
57057;SDS011;55017;52.848;6.748;2022-12-24T06:08:44;138.77;;;130.80;;
57057;SDS011;55017;52.848;6.748;2022-12-24T06:11:11;136.65;;;128.57;;
57057;SDS011;55017;52.848;6.748;2022-12-24T06:13:38;138.50;;;130.23;;
57057;SDS011;55017;52.848;6.748;2022-12-24T06:16:05;142.75;;;133.35;;
57057;SDS011;55017;52.848;6.748;2022-12-24T06:18:32;140.10;;;131.23;;
57057;SDS011;55017;52.848;6.748;2022-12-24T06:20:59;140.77;;;131.68;;
57057;SDS011;55017;52.848;6.748;2022-12-24T06:23:25;140.40;;;132.18;;
57057;SDS011;55017;52.848;6.748;2022-12-24T06:25:53;142.52;;;134.57;;
57057;SDS011;55017;52.848;6.748;2022-12-24T06:28:20;137.45;;;129.80;;
57057;SDS011;55017;52.848;6.748;2022-12-24T06:30:47;139.63;;;132.00;;
57057;SDS011;55017;52.848;6.748;2022-12-24T06:33:13;139.85;;;131.25;;
57057;SDS011;55017;52.848;6.748;2022-12-24T06:35:39;141.07;;;132.70;;
57057;SDS011;55017;52.848;6.748;2022-12-24T06:38:05;145.63;;;137.00;;
57057;SDS011;55017;52.848;6.748;2022-12-24T06:40:32;142.40;;;133.05;;
57057;SDS011;55017;52.848;6.748;2022-12-24T06:42:58;139.80;;;131.02;;
57057;SDS011;55017;52.848;6.748;2022-12-24T06:45:24;140.95;;;133.30;;
57057;SDS011;55017;52.848;6.748;2022-12-24T06:47:50;142.55;;;133.43;;
57057;SDS011;55017;52.848;6.748;2022-12-24T06:50:16;138.93;;;130.40;;
57057;SDS011;55017;52.848;6.748;2022-12-24T06:52:42;143.00;;;134.15;;
57057;SDS011;55017;52.848;6.748;2022-12-24T06:55:08;141.88;;;133.50;;
57057;SDS011;55017;52.848;6.748;2022-12-24T06:57:34;140.15;;;131.88;;
57057;SDS011;55017;52.848;6.748;2022-12-24T07:00:00;141.45;;;132.23;;
57057;SDS011;55017;52.848;6.748;2022-12-24T07:02:26;141.25;;;132.90;;
57057;SDS011;55017;52.848;6.748;2022-12-24T07:04:52;138.07;;;130.43;;
57057;SDS011;55017;52.848;6.748;2022-12-24T07:07:18;140.30;;;132.07;;
57057;SDS011;55017;52.848;6.748;2022-12-24T07:09:44;138.73;;;130.55;;
57057;SDS011;55017;52.848;6.748;2022-12-24T07:12:10;137.48;;;130.40;;
57057;SDS011;55017;52.848;6.748;2022-12-24T07:14:36;136.15;;;128.70;;
57057;SDS011;55017;52.848;6.748;2022-12-24T07:17:02;139.18;;;131.23;;
57057;SDS011;55017;52.848;6.748;2022-12-24T07:19:28;140.55;;;132.45;;
57057;SDS011;55017;52.848;6.748;2022-12-24T07:21:54;140.88;;;133.02;;
57057;SDS011;55017;52.848;6.748;2022-12-24T07:24:20;137.95;;;130.05;;
57057;SDS011;55017;52.848;6.748;2022-12-24T07:26:46;138.93;;;131.82;;
57057;SDS011;55017;52.848;6.748;2022-12-24T07:29:12;136.88;;;129.30;;
57057;SDS011;55017;52.848;6.748;2022-12-24T07:31:38;137.93;;;130.40;;
57057;SDS011;55017;52.848;6.748;2022-12-24T07:34:04;138.90;;;131.80;;
57057;SDS011;55017;52.848;6.748;2022-12-24T07:36:30;137.32;;;129.52;;
57057;SDS011;55017;52.848;6.748;2022-12-24T07:38:56;137.85;;;130.65;;
57057;SDS011;55017;52.848;6.748;2022-12-24T07:41:22;137.85;;;130.15;;
57057;SDS011;55017;52.848;6.748;2022-12-24T07:43:48;142.25;;;134.52;;
57057;SDS011;55017;52.848;6.748;2022-12-24T07:46:14;139.98;;;132.85;;
57057;SDS011;55017;52.848;6.748;2022-12-24T07:48:40;138.57;;;130.27;;
57057;SDS011;55017;52.848;6.748;2022-12-24T07:51:06;136.75;;;129.43;;
57057;SDS011;55017;52.848;6.748;2022-12-24T07:53:33;136.70;;;129.88;;
57057;SDS011;55017;52.848;6.748;2022-12-24T07:55:59;142.32;;;135.10;;
57057;SDS011;55017;52.848;6.748;2022-12-24T07:58:25;135.23;;;127.93;;
57057;SDS011;55017;52.848;6.748;2022-12-24T08:00:58;140.70;;;133.48;;
57057;SDS011;55017;52.848;6.748;2022-12-24T08:03:25;138.48;;;131.02;;
57057;SDS011;55017;52.848;6.748;2022-12-24T08:05:52;138.45;;;130.13;;
57057;SDS011;55017;52.848;6.748;2022-12-24T08:08:18;139.20;;;131.50;;
57057;SDS011;55017;52.848;6.748;2022-12-24T08:10:45;135.50;;;128.38;;
57057;SDS011;55017;52.848;6.748;2022-12-24T08:13:12;140.60;;;132.55;;
57057;SDS011;55017;52.848;6.748;2022-12-24T08:15:38;140.27;;;132.82;;
57057;SDS011;55017;52.848;6.748;2022-12-24T08:18:04;141.05;;;133.60;;
57057;SDS011;55017;52.848;6.748;2022-12-24T08:20:30;141.20;;;133.20;;
57057;SDS011;55017;52.848;6.748;2022-12-24T08:22:56;141.57;;;133.52;;
57057;SDS011;55017;52.848;6.748;2022-12-24T08:25:22;137.90;;;129.70;;
57057;SDS011;55017;52.848;6.748;2022-12-24T08:27:48;136.75;;;128.52;;
57057;SDS011;55017;52.848;6.748;2022-12-24T08:30:14;137.52;;;130.27;;
57057;SDS011;55017;52.848;6.748;2022-12-24T08:32:40;138.63;;;130.32;;
57057;SDS011;55017;52.848;6.748;2022-12-24T08:35:06;139.77;;;131.95;;
57057;SDS011;55017;52.848;6.748;2022-12-24T08:37:32;140.07;;;131.77;;
57057;SDS011;55017;52.848;6.748;2022-12-24T08:39:58;139.70;;;132.43;;
57057;SDS011;55017;52.848;6.748;2022-12-24T08:42:24;139.80;;;131.55;;
57057;SDS011;55017;52.848;6.748;2022-12-24T08:44:50;137.18;;;129.15;;
57057;SDS011;55017;52.848;6.748;2022-12-24T08:47:16;139.70;;;131.15;;
57057;SDS011;55017;52.848;6.748;2022-12-24T08:49:42;141.52;;;133.65;;
57057;SDS011;55017;52.848;6.748;2022-12-24T08:52:08;133.50;;;126.28;;
57057;SDS011;55017;52.848;6.748;2022-12-24T08:54:34;139.55;;;131.43;;
57057;SDS011;55017;52.848;6.748;2022-12-24T08:57:00;141.13;;;132.82;;
57057;SDS011;55017;52.848;6.748;2022-12-24T08:59:26;137.25;;;129.00;;
57057;SDS011;55017;52.848;6.748;2022-12-24T09:01:52;138.05;;;130.13;;
57057;SDS011;55017;52.848;6.748;2022-12-24T09:04:18;139.70;;;131.52;;
57057;SDS011;55017;52.848;6.748;2022-12-24T09:06:44;139.05;;;131.48;;
57057;SDS011;55017;52.848;6.748;2022-12-24T09:09:10;140.70;;;132.77;;
57057;SDS011;55017;52.848;6.748;2022-12-24T09:11:36;138.05;;;129.70;;
57057;SDS011;55017;52.848;6.748;2022-12-24T09:14:02;139.55;;;131.80;;
57057;SDS011;55017;52.848;6.748;2022-12-24T09:16:28;140.90;;;132.48;;
57057;SDS011;55017;52.848;6.748;2022-12-24T09:18:55;139.90;;;132.35;;
57057;SDS011;55017;52.848;6.748;2022-12-24T09:21:21;138.80;;;130.95;;
57057;SDS011;55017;52.848;6.748;2022-12-24T09:23:47;140.48;;;132.52;;
57057;SDS011;55017;52.848;6.748;2022-12-24T09:26:15;138.88;;;130.43;;
57057;SDS011;55017;52.848;6.748;2022-12-24T09:28:41;139.25;;;131.35;;
57057;SDS011;55017;52.848;6.748;2022-12-24T09:31:08;143.13;;;134.68;;
57057;SDS011;55017;52.848;6.748;2022-12-24T09:33:35;142.65;;;134.38;;
57057;SDS011;55017;52.848;6.748;2022-12-24T09:36:02;141.30;;;133.27;;
57057;SDS011;55017;52.848;6.748;2022-12-24T09:38:28;139.90;;;132.30;;
57057;SDS011;55017;52.848;6.748;2022-12-24T09:40:55;139.45;;;131.80;;
57057;SDS011;55017;52.848;6.748;2022-12-24T09:43:25;140.02;;;131.40;;
57057;SDS011;55017;52.848;6.748;2022-12-24T09:48:30;145.25;;;136.45;;
57057;SDS011;55017;52.848;6.748;2022-12-24T09:50:58;141.70;;;133.45;;
57057;SDS011;55017;52.848;6.748;2022-12-24T09:53:39;143.00;;;134.85;;
57057;SDS011;55017;52.848;6.748;2022-12-24T09:56:15;139.80;;;131.57;;
57057;SDS011;55017;52.848;6.748;2022-12-24T09:58:44;142.45;;;134.15;;
57057;SDS011;55017;52.848;6.748;2022-12-24T10:01:11;138.38;;;130.68;;
57057;SDS011;55017;52.848;6.748;2022-12-24T10:03:37;140.50;;;132.25;;
57057;SDS011;55017;52.848;6.748;2022-12-24T10:11:28;142.25;;;133.88;;
57057;SDS011;55017;52.848;6.748;2022-12-24T10:16:23;136.38;;;128.90;;
57057;SDS011;55017;52.848;6.748;2022-12-24T10:18:55;134.65;;;127.75;;
57057;SDS011;55017;52.848;6.748;2022-12-24T10:21:27;136.85;;;129.68;;
57057;SDS011;55017;52.848;6.748;2022-12-24T10:24:20;136.40;;;129.80;;
57057;SDS011;55017;52.848;6.748;2022-12-24T10:26:45;135.93;;;129.45;;
57057;SDS011;55017;52.848;6.748;2022-12-24T10:29:22;137.13;;;130.63;;
57057;SDS011;55017;52.848;6.748;2022-12-24T10:31:51;137.38;;;130.93;;
57057;SDS011;55017;52.848;6.748;2022-12-24T10:34:22;138.27;;;131.63;;
57057;SDS011;55017;52.848;6.748;2022-12-24T10:36:48;134.95;;;128.27;;
57057;SDS011;55017;52.848;6.748;2022-12-24T10:39:19;133.98;;;127.35;;
57057;SDS011;55017;52.848;6.748;2022-12-24T10:41:46;131.95;;;125.70;;
57057;SDS011;55017;52.848;6.748;2022-12-24T10:44:14;137.75;;;130.45;;
57057;SDS011;55017;52.848;6.748;2022-12-24T10:46:41;133.90;;;127.05;;
57057;SDS011;55017;52.848;6.748;2022-12-24T10:49:18;136.45;;;130.32;;
57057;SDS011;55017;52.848;6.748;2022-12-24T10:51:46;137.18;;;129.90;;
57057;SDS011;55017;52.848;6.748;2022-12-24T10:54:21;133.88;;;127.07;;
57057;SDS011;55017;52.848;6.748;2022-12-24T10:56:49;139.13;;;131.13;;
57057;SDS011;55017;52.848;6.748;2022-12-24T10:59:23;139.35;;;132.10;;
57057;SDS011;55017;52.848;6.748;2022-12-24T11:01:50;134.48;;;127.85;;
57057;SDS011;55017;52.848;6.748;2022-12-24T11:04:18;134.73;;;128.32;;
57057;SDS011;55017;52.848;6.748;2022-12-24T11:06:54;136.87;;;129.57;;
57057;SDS011;55017;52.848;6.748;2022-12-24T11:09:30;138.65;;;130.90;;
57057;SDS011;55017;52.848;6.748;2022-12-24T11:11:57;138.13;;;130.48;;
57057;SDS011;55017;52.848;6.748;2022-12-24T11:14:24;137.50;;;130.23;;
57057;SDS011;55017;52.848;6.748;2022-12-24T11:16:53;140.05;;;131.88;;
57057;SDS011;55017;52.848;6.748;2022-12-24T11:19:29;135.10;;;127.90;;
57057;SDS011;55017;52.848;6.748;2022-12-24T11:22:03;138.15;;;130.25;;
57057;SDS011;55017;52.848;6.748;2022-12-24T11:24:33;139.75;;;131.95;;
57057;SDS011;55017;52.848;6.748;2022-12-24T11:27:22;138.70;;;130.32;;
57057;SDS011;55017;52.848;6.748;2022-12-24T11:29:49;138.35;;;131.00;;
57057;SDS011;55017;52.848;6.748;2022-12-24T11:32:17;133.77;;;126.35;;
57057;SDS011;55017;52.848;6.748;2022-12-24T11:34:43;139.02;;;131.52;;
57057;SDS011;55017;52.848;6.748;2022-12-24T11:37:22;141.23;;;133.23;;
57057;SDS011;55017;52.848;6.748;2022-12-24T11:39:49;136.70;;;129.70;;
57057;SDS011;55017;52.848;6.748;2022-12-24T11:42:22;138.05;;;130.38;;
57057;SDS011;55017;52.848;6.748;2022-12-24T11:44:50;138.95;;;130.75;;
57057;SDS011;55017;52.848;6.748;2022-12-24T11:47:16;137.27;;;129.48;;
57057;SDS011;55017;52.848;6.748;2022-12-24T11:49:42;139.10;;;131.05;;
57057;SDS011;55017;52.848;6.748;2022-12-24T11:57:13;141.02;;;132.82;;
57057;SDS011;55017;52.848;6.748;2022-12-24T11:59:41;135.70;;;128.85;;
57057;SDS011;55017;52.848;6.748;2022-12-24T12:04:53;138.35;;;131.52;;
57057;SDS011;55017;52.848;6.748;2022-12-24T12:09:56;137.18;;;130.48;;
57057;SDS011;55017;52.848;6.748;2022-12-24T12:12:26;137.70;;;130.77;;
57057;SDS011;55017;52.848;6.748;2022-12-24T12:17:27;134.10;;;127.18;;
57057;SDS011;55017;52.848;6.748;2022-12-24T12:19:56;139.65;;;131.93;;
57057;SDS011;55017;52.848;6.748;2022-12-24T12:25:20;136.98;;;129.88;;
57057;SDS011;55017;52.848;6.748;2022-12-24T12:27:48;137.07;;;129.60;;
57057;SDS011;55017;52.848;6.748;2022-12-24T12:30:16;133.63;;;127.13;;
57057;SDS011;55017;52.848;6.748;2022-12-24T12:32:44;135.68;;;128.70;;
57057;SDS011;55017;52.848;6.748;2022-12-24T12:35:18;134.95;;;127.43;;
57057;SDS011;55017;52.848;6.748;2022-12-24T12:37:59;133.38;;;126.68;;
57057;SDS011;55017;52.848;6.748;2022-12-24T12:43:12;129.50;;;123.10;;
57057;SDS011;55017;52.848;6.748;2022-12-24T12:48:33;134.35;;;128.32;;
57057;SDS011;55017;52.848;6.748;2022-12-24T12:51:08;132.70;;;126.60;;
57057;SDS011;55017;52.848;6.748;2022-12-24T12:53:40;133.68;;;127.07;;
57057;SDS011;55017;52.848;6.748;2022-12-24T12:58:43;129.70;;;123.70;;
57057;SDS011;55017;52.848;6.748;2022-12-24T13:01:15;134.02;;;127.45;;
57057;SDS011;55017;52.848;6.748;2022-12-24T13:09:00;133.45;;;127.35;;
57057;SDS011;55017;52.848;6.748;2022-12-24T13:16:37;134.07;;;127.28;;
57057;SDS011;55017;52.848;6.748;2022-12-24T13:21:32;135.48;;;128.90;;
57057;SDS011;55017;52.848;6.748;2022-12-24T13:26:40;135.43;;;128.38;;
57057;SDS011;55017;52.848;6.748;2022-12-24T13:29:28;135.50;;;128.75;;
57057;SDS011;55017;52.848;6.748;2022-12-24T13:32:07;133.52;;;126.90;;
57057;SDS011;55017;52.848;6.748;2022-12-24T13:34:42;131.02;;;124.88;;
57057;SDS011;55017;52.848;6.748;2022-12-24T13:37:21;132.77;;;126.15;;
57057;SDS011;55017;52.848;6.748;2022-12-24T13:42:45;132.15;;;126.13;;
57057;SDS011;55017;52.848;6.748;2022-12-24T13:47:53;134.68;;;128.55;;
57057;SDS011;55017;52.848;6.748;2022-12-24T13:55:56;135.00;;;128.88;;
57057;SDS011;55017;52.848;6.748;2022-12-24T13:58:24;132.77;;;126.68;;
57057;SDS011;55017;52.848;6.748;2022-12-24T14:00:54;132.48;;;126.68;;
57057;SDS011;55017;52.848;6.748;2022-12-24T14:03:40;133.68;;;127.57;;
57057;SDS011;55017;52.848;6.748;2022-12-24T14:06:11;136.88;;;130.80;;
57057;SDS011;55017;52.848;6.748;2022-12-24T14:08:44;135.70;;;129.27;;
57057;SDS011;55017;52.848;6.748;2022-12-24T14:11:18;133.05;;;126.90;;
57057;SDS011;55017;52.848;6.748;2022-12-24T14:16:14;132.57;;;126.70;;
57057;SDS011;55017;52.848;6.748;2022-12-24T14:18:58;132.23;;;126.07;;
57057;SDS011;55017;52.848;6.748;2022-12-24T14:21:27;132.43;;;126.65;;
57057;SDS011;55017;52.848;6.748;2022-12-24T14:23:58;131.68;;;125.60;;
57057;SDS011;55017;52.848;6.748;2022-12-24T14:26:27;130.88;;;124.95;;
57057;SDS011;55017;52.848;6.748;2022-12-24T14:29:16;136.77;;;130.60;;
57057;SDS011;55017;52.848;6.748;2022-12-24T14:31:54;133.70;;;127.80;;
57057;SDS011;55017;52.848;6.748;2022-12-24T14:34:20;129.75;;;123.68;;
57057;SDS011;55017;52.848;6.748;2022-12-24T14:36:47;132.82;;;127.15;;
57057;SDS011;55017;52.848;6.748;2022-12-24T14:39:31;134.43;;;128.40;;
57057;SDS011;55017;52.848;6.748;2022-12-24T14:44:45;132.32;;;126.43;;
57057;SDS011;55017;52.848;6.748;2022-12-24T14:47:30;131.68;;;126.55;;
57057;SDS011;55017;52.848;6.748;2022-12-24T14:55:29;132.48;;;126.57;;
57057;SDS011;55017;52.848;6.748;2022-12-24T15:00:41;133.18;;;127.63;;
57057;SDS011;55017;52.848;6.748;2022-12-24T15:03:11;134.57;;;128.38;;
57057;SDS011;55017;52.848;6.748;2022-12-24T15:05:38;130.18;;;124.35;;
57057;SDS011;55017;52.848;6.748;2022-12-24T15:08:08;131.93;;;126.20;;
57057;SDS011;55017;52.848;6.748;2022-12-24T15:10:36;130.52;;;124.55;;
57057;SDS011;55017;52.848;6.748;2022-12-24T15:13:04;132.30;;;126.30;;
57057;SDS011;55017;52.848;6.748;2022-12-24T15:15:30;132.50;;;126.50;;
57057;SDS011;55017;52.848;6.748;2022-12-24T15:17:57;129.93;;;124.35;;
57057;SDS011;55017;52.848;6.748;2022-12-24T15:20:24;131.18;;;125.50;;
57057;SDS011;55017;52.848;6.748;2022-12-24T15:22:52;129.57;;;123.95;;
57057;SDS011;55017;52.848;6.748;2022-12-24T15:27:47;135.27;;;129.35;;
57057;SDS011;55017;52.848;6.748;2022-12-24T15:30:15;135.35;;;129.23;;
57057;SDS011;55017;52.848;6.748;2022-12-24T15:32:41;134.90;;;128.90;;
57057;SDS011;55017;52.848;6.748;2022-12-24T15:35:28;131.65;;;125.65;;
57057;SDS011;55017;52.848;6.748;2022-12-24T15:37:54;132.43;;;126.63;;
57057;SDS011;55017;52.848;6.748;2022-12-24T15:40:22;131.70;;;125.45;;